createdAt,value
2019-02-15T00:01:49.577Z,86.20
2019-02-15T00:04:20.657Z,86.00
2019-02-15T00:06:51.470Z,88.00
2019-02-15T00:09:23.317Z,86.90
2019-02-15T00:11:54.041Z,88.10
2019-02-15T00:14:24.785Z,85.60
2019-02-15T00:16:55.577Z,86.50
2019-02-15T00:19:35.211Z,85.60
2019-02-15T00:22:05.962Z,84.40
2019-02-15T00:24:36.826Z,84.10
2019-02-15T00:27:08.266Z,84.80
2019-02-15T00:29:39.472Z,85.20
2019-02-15T00:32:10.624Z,85.00
2019-02-15T00:34:41.391Z,86.10
2019-02-15T00:37:12.356Z,85.20
2019-02-15T00:39:43.369Z,84.90
2019-02-15T00:42:14.084Z,86.30
2019-02-15T00:44:44.843Z,85.50
2019-02-15T00:47:31.653Z,81.10
2019-02-15T00:50:13.344Z,82.70
2019-02-15T00:52:56.486Z,83.40
2019-02-15T00:56:01.547Z,83.10
2019-02-15T00:58:50.796Z,83.10
2019-02-15T01:01:35.501Z,84.10
2019-02-15T01:04:12.179Z,84.90
2019-02-15T01:07:01.751Z,85.40
2019-02-15T01:09:43.431Z,84.90
2019-02-15T01:12:27.032Z,85.50
2019-02-15T01:14:58.229Z,86.70
2019-02-15T01:17:29.478Z,85.30
2019-02-15T01:20:01.146Z,87.10
2019-02-15T01:22:32.358Z,87.10
2019-02-15T01:25:03.261Z,88.20
2019-02-15T01:27:55.932Z,87.40
2019-02-15T01:30:42.635Z,87.80
2019-02-15T01:33:20.836Z,88.50
2019-02-15T01:36:13.735Z,87.70
2019-02-15T01:38:54.071Z,87.70
2019-02-15T01:41:36.584Z,86.00
2019-02-15T01:44:13.248Z,86.30
2019-02-15T01:46:50.556Z,87.50
2019-02-15T01:49:21.342Z,87.20
2019-02-15T01:51:52.060Z,86.80
2019-02-15T01:54:23.836Z,87.70
2019-02-15T01:56:54.798Z,88.70
2019-02-15T01:59:25.534Z,87.40
2019-02-15T02:01:56.594Z,87.70
2019-02-15T02:04:27.348Z,88.30
2019-02-15T02:06:59.678Z,88.80
2019-02-15T02:09:30.397Z,90.00
2019-02-15T02:12:01.185Z,90.90
2019-02-15T02:14:31.890Z,91.20
2019-02-15T02:17:02.914Z,91.80
2019-02-15T02:19:33.812Z,92.20
2019-02-15T02:22:04.591Z,92.30
2019-02-15T02:24:35.603Z,93.10
2019-02-15T02:27:06.564Z,92.80
2019-02-15T02:29:37.351Z,93.40
2019-02-15T02:32:08.108Z,94.20
2019-02-15T02:34:38.851Z,94.40
2019-02-15T02:37:09.697Z,94.80
2019-02-15T02:39:40.769Z,94.70
2019-02-15T02:42:11.843Z,94.90
2019-02-15T02:44:42.686Z,95.20
2019-02-15T02:47:13.425Z,95.50
2019-02-15T02:49:44.167Z,96.10
2019-02-15T02:52:15.252Z,96.10
2019-02-15T02:54:46.011Z,96.70
2019-02-15T02:57:16.731Z,96.80
2019-02-15T02:59:47.541Z,97.20
2019-02-15T03:02:18.875Z,97.30
2019-02-15T03:04:49.622Z,97.30
2019-02-15T03:07:20.389Z,97.40
2019-02-15T03:09:51.441Z,97.70
2019-02-15T03:12:22.334Z,98.40
2019-02-15T03:14:53.135Z,98.30
2019-02-15T03:17:24.735Z,98.10
2019-02-15T03:19:57.069Z,98.40
2019-02-15T03:22:27.847Z,98.20
2019-02-15T03:24:58.640Z,98.60
2019-02-15T03:27:29.568Z,98.60
2019-02-15T03:30:00.669Z,98.70
2019-02-15T03:32:31.903Z,98.70
2019-02-15T03:35:02.804Z,98.70
2019-02-15T03:37:55.755Z,98.70
2019-02-15T03:40:29.438Z,98.80
2019-02-15T03:43:00.596Z,99.20
2019-02-15T03:45:31.320Z,98.70
2019-02-15T03:48:02.043Z,98.70
2019-02-15T03:50:32.931Z,98.50
2019-02-15T03:53:03.621Z,98.30
2019-02-15T03:55:34.347Z,98.20
2019-02-15T03:58:05.126Z,98.30
2019-02-15T04:00:35.995Z,98.10
2019-02-15T04:03:07.040Z,98.50
2019-02-15T04:05:38.734Z,98.20
2019-02-15T04:08:10.456Z,98.30
2019-02-15T04:10:41.471Z,98.60
2019-02-15T04:13:12.455Z,98.40
2019-02-15T04:15:43.387Z,98.50
2019-02-15T04:18:14.084Z,98.70
2019-02-15T04:20:45.920Z,98.40
2019-02-15T04:23:16.623Z,98.00
2019-02-15T04:25:47.366Z,97.50
2019-02-15T04:28:18.151Z,96.90
2019-02-15T04:30:48.882Z,97.00
2019-02-15T04:33:19.596Z,96.90
2019-02-15T04:35:50.313Z,96.80
2019-02-15T04:38:21.015Z,96.60
2019-02-15T04:40:51.792Z,96.20
2019-02-15T04:43:22.533Z,95.90
2019-02-15T04:45:53.286Z,95.70
2019-02-15T04:48:24.265Z,95.50
2019-02-15T04:50:55.222Z,95.50
2019-02-15T04:53:26.519Z,95.40
2019-02-15T04:55:57.235Z,95.40
2019-02-15T04:58:27.935Z,95.40
2019-02-15T05:00:58.719Z,95.20
2019-02-15T05:03:29.479Z,95.50
2019-02-15T05:06:00.236Z,95.10
2019-02-15T05:08:31.095Z,94.80
2019-02-15T05:11:01.815Z,94.60
2019-02-15T05:13:32.682Z,94.70
2019-02-15T05:16:03.851Z,94.30
2019-02-15T05:18:35.229Z,94.30
2019-02-15T05:21:05.971Z,93.80
2019-02-15T05:23:36.746Z,93.40
2019-02-15T05:26:07.512Z,93.20
2019-02-15T05:28:38.226Z,92.80
2019-02-15T05:31:09.118Z,92.70
2019-02-15T05:33:39.819Z,92.40
2019-02-15T05:36:10.737Z,92.40
2019-02-15T05:38:41.720Z,92.40
2019-02-15T05:41:12.443Z,92.40
2019-02-15T05:43:43.170Z,92.90
2019-02-15T05:46:15.461Z,93.40
2019-02-15T05:48:48.614Z,93.80
2019-02-15T05:51:19.475Z,93.90
2019-02-15T05:53:50.537Z,94.00
2019-02-15T05:56:21.394Z,94.10
2019-02-15T05:58:52.133Z,93.80
2019-02-15T06:01:24.729Z,93.70
2019-02-15T06:03:55.781Z,93.80
2019-02-15T06:06:26.571Z,94.00
2019-02-15T06:08:57.455Z,94.10
2019-02-15T06:11:28.223Z,94.30
2019-02-15T06:13:58.982Z,94.90
2019-02-15T06:16:29.706Z,95.30
2019-02-15T06:19:00.432Z,95.70
2019-02-15T06:21:31.257Z,96.00
2019-02-15T06:24:02.643Z,96.30
2019-02-15T06:26:33.356Z,96.80
2019-02-15T06:29:04.584Z,97.00
2019-02-15T06:31:35.354Z,96.90
2019-02-15T06:34:06.070Z,97.40
2019-02-15T06:36:37.247Z,96.90
2019-02-15T06:39:08.698Z,96.60
2019-02-15T06:41:39.436Z,96.40
2019-02-15T06:44:10.161Z,96.10
2019-02-15T06:46:43.232Z,95.90
2019-02-15T06:49:13.942Z,95.70
2019-02-15T06:51:44.858Z,96.00
2019-02-15T06:54:15.550Z,96.00
2019-02-15T06:56:46.578Z,95.90
2019-02-15T06:59:48.516Z,96.00
2019-02-15T07:02:28.094Z,96.20
2019-02-15T07:05:13.821Z,96.30
2019-02-15T07:07:44.575Z,96.00
2019-02-15T07:10:16.865Z,96.00
2019-02-15T07:12:47.917Z,95.70
2019-02-15T07:15:18.693Z,96.00
2019-02-15T07:17:49.430Z,96.20
2019-02-15T07:20:20.143Z,96.40
2019-02-15T07:22:51.579Z,95.90
2019-02-15T07:25:22.399Z,95.70
2019-02-15T07:27:53.168Z,95.90
2019-02-15T07:30:23.915Z,95.60
2019-02-15T07:32:54.624Z,95.20
2019-02-15T07:35:25.335Z,95.10
2019-02-15T07:37:56.147Z,94.50
2019-02-15T07:40:26.870Z,93.50
2019-02-15T07:42:57.572Z,92.40
2019-02-15T07:45:28.603Z,91.70
2019-02-15T07:47:59.296Z,87.60
2019-02-15T07:50:30.088Z,83.70
2019-02-15T07:53:01.183Z,77.40
2019-02-15T07:55:32.166Z,70.10
2019-02-15T07:58:03.234Z,63.10
2019-02-15T08:00:34.110Z,55.90
2019-02-15T08:03:05.429Z,52.50
2019-02-15T08:05:36.217Z,50.10
2019-02-15T08:08:08.271Z,47.30
2019-02-15T08:10:39.630Z,45.00
2019-02-15T08:13:10.711Z,43.00
2019-02-15T08:15:41.443Z,42.80
2019-02-15T08:18:12.167Z,39.80
2019-02-15T08:20:42.932Z,37.10
2019-02-15T08:23:13.656Z,35.20
2019-02-15T08:25:44.358Z,33.60
2019-02-15T08:28:15.084Z,33.00
2019-02-15T08:30:45.816Z,32.40
2019-02-15T08:33:16.632Z,33.80
2019-02-15T08:35:47.411Z,35.90
2019-02-15T08:38:18.499Z,37.40
2019-02-15T08:40:49.346Z,36.50
2019-02-15T08:43:20.171Z,34.90
2019-02-15T08:45:50.889Z,33.30
2019-02-15T08:48:21.655Z,32.40
2019-02-15T08:50:52.383Z,32.00
2019-02-15T08:53:23.409Z,31.00
2019-02-15T08:56:06.431Z,29.90
2019-02-15T08:58:37.491Z,29.80
2019-02-15T09:01:08.188Z,31.10
2019-02-15T09:03:39.880Z,30.90
2019-02-15T09:06:10.693Z,30.70
2019-02-15T09:08:41.442Z,30.60
2019-02-15T09:11:12.338Z,31.10
2019-02-15T09:13:43.514Z,31.50
2019-02-15T09:16:14.265Z,30.90
2019-02-15T09:18:45.575Z,31.10
2019-02-15T09:21:16.322Z,30.00
2019-02-15T09:23:47.066Z,29.90
2019-02-15T09:26:18.416Z,29.40
2019-02-15T09:28:56.686Z,29.80
2019-02-15T09:31:28.361Z,30.30
2019-02-15T09:34:00.371Z,30.10
2019-02-15T09:36:31.342Z,29.00
2019-02-15T09:39:02.070Z,29.20
2019-02-15T09:41:32.767Z,28.80
2019-02-15T09:44:03.603Z,28.20
2019-02-15T09:46:34.423Z,29.30
2019-02-15T09:49:05.767Z,29.90
2019-02-15T09:51:36.807Z,29.60
2019-02-15T09:54:07.559Z,30.10
2019-02-15T09:56:38.532Z,29.80
2019-02-15T09:59:09.337Z,28.60
2019-02-15T10:01:40.127Z,28.70
2019-02-15T10:04:10.889Z,28.90
2019-02-15T10:06:41.586Z,28.90
2019-02-15T10:09:13.278Z,28.30
2019-02-15T10:11:43.979Z,27.40
2019-02-15T10:14:15.038Z,27.80
2019-02-15T10:16:45.748Z,27.70
2019-02-15T10:19:22.444Z,27.40
2019-02-15T10:21:49.619Z,27.80
2019-02-15T10:24:20.407Z,27.10
2019-02-15T10:26:51.130Z,27.90
2019-02-15T10:29:21.845Z,27.60
2019-02-15T10:31:52.550Z,27.90
2019-02-15T10:34:23.318Z,28.40
2019-02-15T10:36:54.824Z,29.30
2019-02-15T10:39:25.575Z,30.40
2019-02-15T10:41:56.305Z,31.00
2019-02-15T10:44:27.050Z,30.90
2019-02-15T10:46:58.389Z,31.80
2019-02-15T10:49:29.094Z,31.50
2019-02-15T10:51:59.906Z,31.20
2019-02-15T10:54:30.647Z,31.60
2019-02-15T10:57:01.447Z,32.20
2019-02-15T10:59:32.162Z,32.70
2019-02-15T11:02:02.954Z,34.60
2019-02-15T11:04:34.071Z,36.00
2019-02-15T11:07:04.813Z,36.70
2019-02-15T11:09:35.808Z,37.70
2019-02-15T11:12:06.571Z,38.70
2019-02-15T11:14:37.328Z,38.10
2019-02-15T11:17:08.049Z,38.50
2019-02-15T11:19:39.273Z,38.50
2019-02-15T11:22:09.994Z,38.80
2019-02-15T11:24:40.997Z,39.80
2019-02-15T11:27:11.713Z,39.30
2019-02-15T11:29:42.423Z,39.70
2019-02-15T11:32:13.498Z,40.00
2019-02-15T11:34:44.348Z,40.00
2019-02-15T11:37:15.094Z,39.80
2019-02-15T11:39:46.405Z,41.00
2019-02-15T11:42:17.827Z,41.10
2019-02-15T11:44:48.548Z,41.20
2019-02-15T11:47:22.805Z,41.40
2019-02-15T11:49:53.556Z,41.00
2019-02-15T11:52:24.255Z,40.70
2019-02-15T11:54:55.034Z,40.70
2019-02-15T11:57:25.796Z,40.50
2019-02-15T11:59:56.837Z,40.30
2019-02-15T12:02:27.911Z,40.60
2019-02-15T12:04:58.737Z,40.50
2019-02-15T12:07:29.894Z,40.00
2019-02-15T12:10:00.998Z,40.60
2019-02-15T12:12:31.949Z,39.90
2019-02-15T12:15:02.662Z,39.80
2019-02-15T12:17:34.532Z,40.00
2019-02-15T12:20:05.909Z,39.50
2019-02-15T12:22:36.701Z,40.60
2019-02-15T12:25:07.579Z,40.50
2019-02-15T12:27:38.708Z,40.00
2019-02-15T12:30:10.578Z,40.00
2019-02-15T12:32:42.354Z,40.80
2019-02-15T12:35:13.165Z,40.10
2019-02-15T12:37:43.871Z,39.10
2019-02-15T12:40:14.669Z,39.70
2019-02-15T12:42:45.438Z,40.30
2019-02-15T12:45:16.208Z,40.50
2019-02-15T12:47:47.039Z,39.80
2019-02-15T12:50:17.934Z,39.10
2019-02-15T12:52:48.771Z,39.10
2019-02-15T12:55:19.569Z,39.70
2019-02-15T12:57:50.475Z,40.10
2019-02-15T13:00:21.313Z,39.10
2019-02-15T13:02:52.126Z,39.80
2019-02-15T13:05:22.874Z,40.00
2019-02-15T13:07:53.709Z,40.40
2019-02-15T13:10:26.439Z,40.10
2019-02-15T13:12:57.156Z,40.10
2019-02-15T13:15:27.894Z,40.90
2019-02-15T13:17:58.642Z,41.10
2019-02-15T13:20:29.427Z,41.00
2019-02-15T13:23:00.213Z,40.30
2019-02-15T13:25:36.736Z,40.10
2019-02-15T13:28:03.522Z,40.00
2019-02-15T13:30:34.241Z,39.40
2019-02-15T13:33:05.022Z,39.30
2019-02-15T13:35:35.761Z,39.40
2019-02-15T13:38:07.025Z,40.50
2019-02-15T13:40:37.928Z,40.60
2019-02-15T13:43:08.797Z,40.50
2019-02-15T13:45:39.530Z,41.40
2019-02-15T13:48:10.274Z,41.20
2019-02-15T13:50:40.987Z,41.70
2019-02-15T13:53:11.733Z,41.40
2019-02-15T13:55:42.780Z,41.50
2019-02-15T13:58:13.622Z,41.60
2019-02-15T14:00:44.443Z,41.30
2019-02-15T14:03:15.266Z,41.70
2019-02-15T14:05:46.330Z,42.00
2019-02-15T14:08:17.080Z,41.10
2019-02-15T14:10:48.187Z,41.10
2019-02-15T14:13:19.286Z,41.00
2019-02-15T14:15:50.264Z,41.40
2019-02-15T14:18:21.085Z,41.10
2019-02-15T14:20:51.819Z,41.30
2019-02-15T14:23:22.561Z,41.10
2019-02-15T14:25:53.373Z,40.90
2019-02-15T14:28:24.120Z,41.60
2019-02-15T14:30:55.105Z,40.90
2019-02-15T14:33:25.957Z,41.10
2019-02-15T14:35:57.057Z,41.30
2019-02-15T14:38:27.776Z,41.60
2019-02-15T14:40:58.705Z,41.50
2019-02-15T14:43:30.402Z,41.40
2019-02-15T14:46:01.277Z,41.30
2019-02-15T14:48:32.006Z,41.20
2019-02-15T14:51:02.854Z,41.30
2019-02-15T14:53:33.584Z,40.70
2019-02-15T14:56:04.389Z,41.80
2019-02-15T14:58:36.253Z,41.30
2019-02-15T15:01:07.028Z,41.10
2019-02-15T15:03:38.050Z,40.90
2019-02-15T15:06:08.877Z,41.40
2019-02-15T15:08:39.786Z,41.50
2019-02-15T15:11:10.582Z,41.50
2019-02-15T15:13:41.652Z,41.50
2019-02-15T15:16:12.897Z,41.40
2019-02-15T15:18:52.655Z,41.20
2019-02-15T15:21:26.464Z,40.90
2019-02-15T15:24:17.973Z,41.10
2019-02-15T15:26:49.212Z,41.50
2019-02-15T15:29:20.268Z,42.00
2019-02-15T15:31:51.154Z,41.80
2019-02-15T15:34:21.977Z,42.00
2019-02-15T15:36:52.848Z,42.80
2019-02-15T15:39:26.349Z,42.50
2019-02-15T15:41:57.670Z,42.50
2019-02-15T15:45:05.159Z,42.30
2019-02-15T15:47:36.933Z,42.10
2019-02-15T15:50:08.917Z,43.30
2019-02-15T15:52:44.832Z,42.90
2019-02-15T15:55:32.105Z,43.20
2019-02-15T15:58:03.258Z,43.40
2019-02-15T16:01:40.752Z,44.30
2019-02-15T16:04:11.859Z,44.40
2019-02-15T16:06:43.139Z,44.00
2019-02-15T16:09:14.012Z,44.90
2019-02-15T16:11:45.144Z,45.30
2019-02-15T16:14:15.961Z,44.90
2019-02-15T16:16:58.561Z,45.70
2019-02-15T16:19:40.685Z,45.30
2019-02-15T16:22:36.776Z,45.70
2019-02-15T16:24:56.734Z,46.30
2019-02-15T16:27:30.802Z,46.10
2019-02-15T16:30:02.021Z,46.40
2019-02-15T16:32:33.016Z,47.60
2019-02-15T16:35:03.915Z,48.00
2019-02-15T16:37:36.130Z,48.20
2019-02-15T16:40:11.743Z,48.50
2019-02-15T16:42:43.636Z,50.00
2019-02-15T16:45:15.918Z,50.20
2019-02-15T16:47:46.706Z,49.50
2019-02-15T16:50:19.338Z,49.40
2019-02-15T16:52:50.937Z,49.30
2019-02-15T16:55:21.819Z,49.80
2019-02-15T16:57:53.802Z,50.40
2019-02-15T17:00:26.117Z,51.20
2019-02-15T17:02:57.019Z,50.50
2019-02-15T17:05:28.815Z,50.90
2019-02-15T17:07:59.997Z,50.70
2019-02-15T17:10:32.104Z,51.50
2019-02-15T17:13:02.987Z,52.70
2019-02-15T17:15:34.019Z,54.20
2019-02-15T17:18:04.824Z,54.40
2019-02-15T17:20:37.728Z,54.40
2019-02-15T17:23:08.522Z,53.80
2019-02-15T17:25:42.402Z,53.90
2019-02-15T17:28:13.171Z,55.00
2019-02-15T17:30:43.944Z,54.00
2019-02-15T17:33:15.286Z,53.80
2019-02-15T17:35:46.120Z,53.80
2019-02-15T17:38:16.997Z,53.70
2019-02-15T17:40:48.077Z,53.90
2019-02-15T17:43:18.809Z,54.40
2019-02-15T17:45:50.901Z,54.20
2019-02-15T17:48:23.197Z,54.50
2019-02-15T17:50:56.692Z,54.70
2019-02-15T17:53:28.408Z,55.60
2019-02-15T17:55:59.623Z,56.60
2019-02-15T17:58:31.820Z,57.40
2019-02-15T18:01:03.007Z,57.60
2019-02-15T18:03:33.948Z,57.20
2019-02-15T18:06:04.760Z,57.80
2019-02-15T18:08:35.569Z,58.10
2019-02-15T18:11:06.441Z,58.60
2019-02-15T18:13:40.142Z,58.30
2019-02-15T18:16:11.129Z,59.70
2019-02-15T18:18:42.161Z,60.20
2019-02-15T18:21:12.979Z,60.10
2019-02-15T18:23:59.816Z,59.60
2019-02-15T18:26:44.802Z,59.80
2019-02-15T18:29:27.688Z,61.20
2019-02-15T18:32:00.581Z,61.20
2019-02-15T18:34:35.492Z,62.30
2019-02-15T18:37:11.205Z,62.20
2019-02-15T18:39:49.235Z,62.80
2019-02-15T18:42:21.229Z,63.70
2019-02-15T18:44:52.224Z,64.50
2019-02-15T18:47:23.214Z,64.80
2019-02-15T18:49:54.063Z,64.80
2019-02-15T18:52:25.539Z,65.20
2019-02-15T18:54:56.435Z,66.00
2019-02-15T18:57:27.286Z,67.00
2019-02-15T18:59:58.247Z,66.90
2019-02-15T19:02:28.967Z,67.40
2019-02-15T19:04:59.707Z,67.60
2019-02-15T19:07:30.671Z,68.10
2019-02-15T19:10:01.432Z,68.10
2019-02-15T19:12:32.171Z,68.80
2019-02-15T19:15:04.046Z,68.20
2019-02-15T19:17:34.973Z,68.40
2019-02-15T19:20:06.715Z,68.90
2019-02-15T19:22:37.492Z,68.70
2019-02-15T19:25:10.121Z,68.70
2019-02-15T19:27:41.103Z,68.40
2019-02-15T19:30:14.623Z,68.20
2019-02-15T19:32:45.562Z,69.20
2019-02-15T19:35:16.415Z,70.30
2019-02-15T19:37:47.261Z,70.40
2019-02-15T19:40:18.207Z,70.80
2019-02-15T19:42:50.482Z,72.30
2019-02-15T19:45:21.263Z,72.60
2019-02-15T19:47:52.132Z,72.00
2019-02-15T19:50:22.961Z,71.80
2019-02-15T19:52:53.700Z,72.00
2019-02-15T19:55:24.457Z,70.80
2019-02-15T19:57:55.280Z,70.90
2019-02-15T20:00:26.116Z,72.00
2019-02-15T20:02:56.871Z,72.30
2019-02-15T20:05:27.903Z,72.40
2019-02-15T20:07:58.648Z,72.30
2019-02-15T20:10:29.517Z,72.90
2019-02-15T20:13:00.852Z,72.70
2019-02-15T20:15:31.828Z,73.20
2019-02-15T20:18:02.551Z,72.70
2019-02-15T20:20:33.356Z,73.00
2019-02-15T20:23:04.165Z,73.20
2019-02-15T20:25:34.911Z,73.20
2019-02-15T20:28:13.626Z,74.00
2019-02-15T20:30:38.150Z,72.60
2019-02-15T20:33:09.152Z,72.70
2019-02-15T20:35:40.082Z,73.00
2019-02-15T20:38:12.580Z,73.50
2019-02-15T20:40:43.438Z,73.60
2019-02-15T20:43:14.334Z,73.90
2019-02-15T20:45:46.140Z,74.60
2019-02-15T20:48:16.875Z,75.40
2019-02-15T20:50:48.793Z,75.40
2019-02-15T20:53:19.558Z,75.00
2019-02-15T20:55:52.459Z,75.00
2019-02-15T20:58:23.242Z,76.20
2019-02-15T21:00:56.091Z,75.90
2019-02-15T21:03:26.386Z,76.60
2019-02-15T21:05:57.219Z,77.10
2019-02-15T21:08:27.960Z,77.20
2019-02-15T21:10:58.713Z,77.50
2019-02-15T21:13:29.454Z,78.00
2019-02-15T21:16:00.725Z,79.10
2019-02-15T21:18:31.512Z,79.70
2019-02-15T21:21:02.236Z,80.00
2019-02-15T21:23:33.124Z,79.30
2019-02-15T21:26:04.271Z,79.70
2019-02-15T21:28:35.389Z,79.40
2019-02-15T21:31:06.128Z,79.60
2019-02-15T21:33:37.075Z,80.20
2019-02-15T21:36:07.907Z,81.20
2019-02-15T21:38:38.635Z,81.60
2019-02-15T21:41:09.455Z,81.50
2019-02-15T21:43:40.249Z,81.50
2019-02-15T21:46:10.971Z,82.20
2019-02-15T21:48:41.869Z,82.70
2019-02-15T21:51:13.554Z,83.30
2019-02-15T21:53:44.305Z,83.70
2019-02-15T21:56:15.269Z,83.70
2019-02-15T21:58:46.123Z,84.20
2019-02-15T22:01:16.947Z,84.70
2019-02-15T22:03:47.744Z,84.60
2019-02-15T22:06:18.513Z,85.80
2019-02-15T22:08:49.403Z,87.00
2019-02-15T22:11:20.163Z,86.30
2019-02-15T22:13:50.912Z,87.10
2019-02-15T22:16:21.794Z,86.40
2019-02-15T22:18:52.625Z,87.00
2019-02-15T22:21:23.425Z,86.50
2019-02-15T22:23:54.148Z,86.40
2019-02-15T22:26:25.211Z,86.30
2019-02-15T22:28:56.025Z,86.80
2019-02-15T22:31:27.106Z,87.20
2019-02-15T22:33:57.871Z,87.50
2019-02-15T22:36:29.340Z,87.30
2019-02-15T22:39:00.065Z,87.20
2019-02-15T22:41:31.503Z,87.30
2019-02-15T22:44:02.307Z,87.60
2019-02-15T22:46:33.167Z,87.90
2019-02-15T22:49:03.973Z,88.10
2019-02-15T22:51:35.455Z,87.90
2019-02-15T22:54:07.285Z,87.40
2019-02-15T22:56:38.330Z,87.40
2019-02-15T22:59:09.145Z,87.80
2019-02-15T23:01:40.455Z,87.80
2019-02-15T23:04:11.626Z,87.40
2019-02-15T23:06:44.069Z,88.10
2019-02-15T23:09:25.830Z,87.80
2019-02-15T23:11:56.728Z,88.20
2019-02-15T23:14:27.471Z,88.50
2019-02-15T23:16:58.210Z,88.20
2019-02-15T23:19:30.029Z,88.80
2019-02-15T23:22:01.455Z,89.10
2019-02-15T23:24:32.210Z,88.40
2019-02-15T23:27:03.019Z,88.60
2019-02-15T23:29:33.923Z,88.80
2019-02-15T23:32:04.751Z,89.00
2019-02-15T23:34:35.846Z,89.40
2019-02-15T23:37:06.577Z,89.80
2019-02-15T23:39:37.313Z,88.70
2019-02-15T23:42:08.078Z,89.80
2019-02-15T23:44:38.976Z,89.80
2019-02-15T23:47:09.724Z,90.30
2019-02-15T23:49:40.531Z,90.40
2019-02-15T23:52:11.511Z,90.50
2019-02-15T23:54:42.282Z,90.50
2019-02-15T23:57:13.014Z,90.60
2019-02-15T23:59:43.772Z,90.60
